sensor_id;sensor_type;location;lat;lon;timestamp;pressure;altitude;pressure_sealevel;temperature;humidity
62710;BME280;48770;51.624;5.886;2023-09-12T00:01:28;101160.53;;;28.74;47.71
62710;BME280;48770;51.624;5.886;2023-09-12T00:03:58;101176.59;;;28.70;47.35
62710;BME280;48770;51.624;5.886;2023-09-12T00:06:23;101180.22;;;28.67;47.78
62710;BME280;48770;51.624;5.886;2023-09-12T00:08:48;101171.38;;;28.65;47.53
62710;BME280;48770;51.624;5.886;2023-09-12T00:11:13;101176.19;;;28.64;47.96
62710;BME280;48770;51.624;5.886;2023-09-12T00:13:39;101207.56;;;28.66;47.85
62710;BME280;48770;51.624;5.886;2023-09-12T00:16:05;101231.69;;;28.67;47.80
62710;BME280;48770;51.624;5.886;2023-09-12T00:18:31;101214.78;;;28.67;47.70
62710;BME280;48770;51.624;5.886;2023-09-12T00:20:56;101178.63;;;28.66;47.50
62710;BME280;48770;51.624;5.886;2023-09-12T00:23:22;101149.28;;;28.67;47.48
62710;BME280;48770;51.624;5.886;2023-09-12T00:25:49;101145.25;;;28.68;47.63
62710;BME280;48770;51.624;5.886;2023-09-12T00:28:16;101160.53;;;28.67;47.71
62710;BME280;48770;51.624;5.886;2023-09-12T00:30:42;101162.53;;;28.66;47.26
62710;BME280;48770;51.624;5.886;2023-09-12T00:33:07;101149.66;;;28.65;47.28
62710;BME280;48770;51.624;5.886;2023-09-12T00:35:32;101141.22;;;28.65;47.22
62710;BME280;48770;51.624;5.886;2023-09-12T00:37:58;101144.44;;;28.64;47.69
62710;BME280;48770;51.624;5.886;2023-09-12T00:40:23;101146.47;;;28.63;47.63
62710;BME280;48770;51.624;5.886;2023-09-12T00:42:48;101145.66;;;28.63;47.20
62710;BME280;48770;51.624;5.886;2023-09-12T00:45:14;101135.56;;;28.62;46.94
62710;BME280;48770;51.624;5.886;2023-09-12T00:47:39;101140.03;;;28.63;46.80
62710;BME280;48770;51.624;5.886;2023-09-12T00:50:05;101140.03;;;28.63;47.02
62710;BME280;48770;51.624;5.886;2023-09-12T00:52:33;101128.78;;;28.63;46.94
62710;BME280;48770;51.624;5.886;2023-09-12T00:54:59;101125.53;;;28.61;47.22
62710;BME280;48770;51.624;5.886;2023-09-12T00:57:25;101123.91;;;28.60;46.98
62710;BME280;48770;51.624;5.886;2023-09-12T00:59:51;101117.88;;;28.58;47.13
62710;BME280;48770;51.624;5.886;2023-09-12T01:02:19;101121.09;;;28.56;47.44
62710;BME280;48770;51.624;5.886;2023-09-12T01:04:44;101115.88;;;28.54;46.80
62710;BME280;48770;51.624;5.886;2023-09-12T01:07:10;101123.91;;;28.52;47.03
62710;BME280;48770;51.624;5.886;2023-09-12T01:09:35;101122.31;;;28.51;47.53
62710;BME280;48770;51.624;5.886;2023-09-12T01:12:01;101125.50;;;28.50;47.43
62710;BME280;48770;51.624;5.886;2023-09-12T01:14:30;101122.69;;;28.50;47.39
62710;BME280;48770;51.624;5.886;2023-09-12T01:16:57;101126.31;;;28.50;47.41
62710;BME280;48770;51.624;5.886;2023-09-12T01:19:23;101121.09;;;28.49;47.01
62710;BME280;48770;51.624;5.886;2023-09-12T01:22:10;101131.53;;;28.48;47.43
62710;BME280;48770;51.624;5.886;2023-09-12T01:27:46;101132.34;;;28.42;47.49
62710;BME280;48770;51.624;5.886;2023-09-12T01:30:12;101130.31;;;28.42;46.97
62710;BME280;48770;51.624;5.886;2023-09-12T01:32:41;101123.91;;;28.42;47.45
62710;BME280;48770;51.624;5.886;2023-09-12T01:35:07;101129.53;;;28.42;47.05
62710;BME280;48770;51.624;5.886;2023-09-12T01:37:33;101128.72;;;28.41;47.41
62710;BME280;48770;51.624;5.886;2023-09-12T01:39:59;101119.88;;;28.39;46.98
62710;BME280;48770;51.624;5.886;2023-09-12T01:42:28;101124.28;;;28.40;46.97
62710;BME280;48770;51.624;5.886;2023-09-12T01:44:56;101121.88;;;28.39;47.09
62710;BME280;48770;51.624;5.886;2023-09-12T01:47:22;101118.25;;;28.38;47.31
62710;BME280;48770;51.624;5.886;2023-09-12T01:49:52;101115.84;;;28.37;47.04
62710;BME280;48770;51.624;5.886;2023-09-12T01:52:19;101115.03;;;28.36;47.24
62710;BME280;48770;51.624;5.886;2023-09-12T01:54:45;101113.41;;;28.35;46.87
62710;BME280;48770;51.624;5.886;2023-09-12T01:57:12;101113.81;;;28.34;47.15
62710;BME280;48770;51.624;5.886;2023-09-12T01:59:38;101114.22;;;28.32;46.60
62710;BME280;48770;51.624;5.886;2023-09-12T02:02:04;101106.56;;;28.29;46.48
62710;BME280;48770;51.624;5.886;2023-09-12T02:04:29;101111.00;;;28.30;46.98
62710;BME280;48770;51.624;5.886;2023-09-12T02:06:54;101111.00;;;28.30;47.15
62710;BME280;48770;51.624;5.886;2023-09-12T02:09:19;101108.97;;;28.31;46.67
62710;BME280;48770;51.624;5.886;2023-09-12T02:11:45;101117.81;;;28.29;46.66
62710;BME280;48770;51.624;5.886;2023-09-12T02:14:10;101117.81;;;28.29;46.74
62710;BME280;48770;51.624;5.886;2023-09-12T02:16:38;101111.78;;;28.27;46.80
62710;BME280;48770;51.624;5.886;2023-09-12T02:19:05;101118.22;;;28.28;46.78
62710;BME280;48770;51.624;5.886;2023-09-12T02:21:30;101129.47;;;28.28;46.84
62710;BME280;48770;51.624;5.886;2023-09-12T02:23:55;101122.63;;;28.25;46.99
62710;BME280;48770;51.624;5.886;2023-09-12T02:26:21;101131.44;;;28.23;46.47
62710;BME280;48770;51.624;5.886;2023-09-12T02:28:46;101126.63;;;28.24;46.99
62710;BME280;48770;51.624;5.886;2023-09-12T02:31:12;101127.81;;;28.23;46.95
62710;BME280;48770;51.624;5.886;2023-09-12T02:33:38;101127.81;;;28.23;46.19
62710;BME280;48770;51.624;5.886;2023-09-12T02:36:04;101127.03;;;28.22;46.22
62710;BME280;48770;51.624;5.886;2023-09-12T02:38:29;101133.03;;;28.21;46.12
62710;BME280;48770;51.624;5.886;2023-09-12T02:40:54;101135.44;;;28.19;46.19
62710;BME280;48770;51.624;5.886;2023-09-12T02:43:21;101138.25;;;28.19;46.77
62710;BME280;48770;51.624;5.886;2023-09-12T02:45:46;101135.84;;;28.17;46.43
62710;BME280;48770;51.624;5.886;2023-09-12T02:48:11;101135.03;;;28.17;46.25
62710;BME280;48770;51.624;5.886;2023-09-12T02:50:37;101139.06;;;28.16;46.19
62710;BME280;48770;51.624;5.886;2023-09-12T02:53:02;101141.88;;;28.16;46.37
62710;BME280;48770;51.624;5.886;2023-09-12T02:55:28;101132.63;;;28.15;46.50
62710;BME280;48770;51.624;5.886;2023-09-12T02:57:53;101145.88;;;28.15;46.09
62710;BME280;48770;51.624;5.886;2023-09-12T03:00:19;101138.25;;;28.15;46.02
62710;BME280;48770;51.624;5.886;2023-09-12T03:02:45;101146.69;;;28.15;45.96
62710;BME280;48770;51.624;5.886;2023-09-12T03:05:10;101141.47;;;28.14;45.95
62710;BME280;48770;51.624;5.886;2023-09-12T03:07:36;101145.47;;;28.13;46.38
62710;BME280;48770;51.624;5.886;2023-09-12T03:10:01;101143.06;;;28.11;46.03
62710;BME280;48770;51.624;5.886;2023-09-12T03:12:27;101136.63;;;28.11;46.29
62710;BME280;48770;51.624;5.886;2023-09-12T03:14:52;101124.53;;;28.10;46.48
62710;BME280;48770;51.624;5.886;2023-09-12T03:17:17;101123.75;;;28.10;46.24
62710;BME280;48770;51.624;5.886;2023-09-12T03:19:43;101122.53;;;28.07;46.36
62710;BME280;48770;51.624;5.886;2023-09-12T03:22:08;101129.34;;;28.06;46.29
62710;BME280;48770;51.624;5.886;2023-09-12T03:24:33;101138.19;;;28.05;46.50
62710;BME280;48770;51.624;5.886;2023-09-12T03:26:58;101127.75;;;28.02;46.13
62710;BME280;48770;51.624;5.886;2023-09-12T03:29:24;101134.56;;;28.01;46.25
62710;BME280;48770;51.624;5.886;2023-09-12T03:31:49;101133.34;;;28.02;46.70
62710;BME280;48770;51.624;5.886;2023-09-12T03:34:14;101120.09;;;27.99;46.27
62710;BME280;48770;51.624;5.886;2023-09-12T03:36:40;101115.28;;;27.95;46.62
62710;BME280;48770;51.624;5.886;2023-09-12T03:39:05;101098.81;;;27.94;46.32
62710;BME280;48770;51.624;5.886;2023-09-12T03:41:34;101096.00;;;27.94;46.28
62710;BME280;48770;51.624;5.886;2023-09-12T03:43:59;101089.97;;;27.95;46.46
62710;BME280;48770;51.624;5.886;2023-09-12T03:46:25;101091.56;;;27.93;46.58
62710;BME280;48770;51.624;5.886;2023-09-12T03:48:50;101087.56;;;27.90;46.45
62710;BME280;48770;51.624;5.886;2023-09-12T03:51:15;101089.94;;;27.88;46.51
62710;BME280;48770;51.624;5.886;2023-09-12T03:53:41;101091.16;;;27.87;46.90
62710;BME280;48770;51.624;5.886;2023-09-12T03:56:07;101097.16;;;27.86;46.91
62710;BME280;48770;51.624;5.886;2023-09-12T03:58:33;101096.72;;;27.84;46.35
62710;BME280;48770;51.624;5.886;2023-09-12T04:00:58;101102.75;;;27.82;46.48
62710;BME280;48770;51.624;5.886;2023-09-12T04:03:24;101095.53;;;27.81;46.80
62710;BME280;48770;51.624;5.886;2023-09-12T04:05:50;101090.69;;;27.82;46.67
62710;BME280;48770;51.624;5.886;2023-09-12T04:08:16;101099.94;;;27.82;46.91
62710;BME280;48770;51.624;5.886;2023-09-12T04:10:42;101080.28;;;27.82;46.96
62710;BME280;48770;51.624;5.886;2023-09-12T04:13:07;101066.22;;;27.79;46.39
62710;BME280;48770;51.624;5.886;2023-09-12T04:15:32;101076.63;;;27.78;46.39
62710;BME280;48770;51.624;5.886;2023-09-12T04:17:58;101069.41;;;27.77;46.62
62710;BME280;48770;51.624;5.886;2023-09-12T04:20:23;101073.81;;;27.75;46.69
62710;BME280;48770;51.624;5.886;2023-09-12T04:22:49;101085.47;;;27.73;46.95
62710;BME280;48770;51.624;5.886;2023-09-12T04:25:14;101091.06;;;27.70;46.60
62710;BME280;48770;51.624;5.886;2023-09-12T04:27:41;101085.84;;;27.68;46.45
62710;BME280;48770;51.624;5.886;2023-09-12T04:30:07;101077.00;;;27.66;46.55
62710;BME280;48770;51.624;5.886;2023-09-12T04:32:33;101085.44;;;27.66;46.79
62710;BME280;48770;51.624;5.886;2023-09-12T04:34:58;101084.22;;;27.63;46.62
62710;BME280;48770;51.624;5.886;2023-09-12T04:37:24;101083.41;;;27.63;46.91
62710;BME280;48770;51.624;5.886;2023-09-12T04:39:49;101080.59;;;27.63;46.92
62710;BME280;48770;51.624;5.886;2023-09-12T04:42:14;101080.97;;;27.61;46.79
62710;BME280;48770;51.624;5.886;2023-09-12T04:44:40;101086.19;;;27.59;46.62
62710;BME280;48770;51.624;5.886;2023-09-12T04:47:05;101088.97;;;27.59;46.98
62710;BME280;48770;51.624;5.886;2023-09-12T04:49:30;101091.34;;;27.57;46.91
62710;BME280;48770;51.624;5.886;2023-09-12T04:51:56;101099.38;;;27.55;46.88
62710;BME280;48770;51.624;5.886;2023-09-12T04:54:21;101105.00;;;27.55;47.04
62710;BME280;48770;51.624;5.886;2023-09-12T04:56:46;101102.56;;;27.54;47.05
62710;BME280;48770;51.624;5.886;2023-09-12T04:59:12;101111.00;;;27.54;47.08
62710;BME280;48770;51.624;5.886;2023-09-12T05:01:37;101117.00;;;27.52;47.17
62710;BME280;48770;51.624;5.886;2023-09-12T05:04:03;101114.59;;;27.51;46.83
62710;BME280;48770;51.624;5.886;2023-09-12T05:06:28;101112.56;;;27.48;47.17
62710;BME280;48770;51.624;5.886;2023-09-12T05:08:54;101117.38;;;27.44;47.10
62710;BME280;48770;51.624;5.886;2023-09-12T05:11:22;101126.56;;;27.41;47.19
62710;BME280;48770;51.624;5.886;2023-09-12T05:13:48;101127.38;;;27.38;47.13
62710;BME280;48770;51.624;5.886;2023-09-12T05:16:14;101125.34;;;27.34;47.50
62710;BME280;48770;51.624;5.886;2023-09-12T05:18:39;101120.91;;;27.33;47.59
62710;BME280;48770;51.624;5.886;2023-09-12T05:21:04;101113.69;;;27.32;46.92
62710;BME280;48770;51.624;5.886;2023-09-12T05:23:30;101112.09;;;27.35;47.60
62710;BME280;48770;51.624;5.886;2023-09-12T05:25:55;101109.69;;;27.33;47.61
62710;BME280;48770;51.624;5.886;2023-09-12T05:28:20;101107.69;;;27.34;47.33
62710;BME280;48770;51.624;5.886;2023-09-12T05:30:46;101109.69;;;27.33;47.52
62710;BME280;48770;51.624;5.886;2023-09-12T05:33:11;101110.50;;;27.34;47.62
62710;BME280;48770;51.624;5.886;2023-09-12T05:35:36;101102.88;;;27.34;47.28
62710;BME280;48770;51.624;5.886;2023-09-12T05:38:02;101115.72;;;27.36;47.24
62710;BME280;48770;51.624;5.886;2023-09-12T05:40:28;101123.34;;;27.35;47.23
62710;BME280;48770;51.624;5.886;2023-09-12T05:42:53;101129.34;;;27.33;47.67
62710;BME280;48770;51.624;5.886;2023-09-12T05:45:19;101124.53;;;27.34;47.37
62710;BME280;48770;51.624;5.886;2023-09-12T05:47:44;101121.72;;;27.34;47.47
62710;BME280;48770;51.624;5.886;2023-09-12T05:50:09;101135.38;;;27.36;47.22
62710;BME280;48770;51.624;5.886;2023-09-12T05:52:35;101129.75;;;27.36;47.66
62710;BME280;48770;51.624;5.886;2023-09-12T05:55:00;101131.38;;;27.37;47.15
62710;BME280;48770;51.624;5.886;2023-09-12T05:57:25;101137.78;;;27.37;47.34
62710;BME280;48770;51.624;5.886;2023-09-12T05:59:51;101141.41;;;27.38;47.53
62710;BME280;48770;51.624;5.886;2023-09-12T06:02:16;101147.44;;;27.40;47.52
62710;BME280;48770;51.624;5.886;2023-09-12T06:04:43;101144.22;;;27.41;47.77
62710;BME280;48770;51.624;5.886;2023-09-12T06:07:08;101143.44;;;27.41;47.70
62710;BME280;48770;51.624;5.886;2023-09-12T06:09:33;101145.03;;;27.42;47.73
62710;BME280;48770;51.624;5.886;2023-09-12T06:11:59;101140.63;;;27.41;47.70
62710;BME280;48770;51.624;5.886;2023-09-12T06:14:24;101129.38;;;27.41;47.44
62710;BME280;48770;51.624;5.886;2023-09-12T06:16:49;101126.56;;;27.41;47.67
62710;BME280;48770;51.624;5.886;2023-09-12T06:19:14;101129.38;;;27.41;47.55
62710;BME280;48770;51.624;5.886;2023-09-12T06:21:40;101129.38;;;27.41;47.39
62710;BME280;48770;51.624;5.886;2023-09-12T06:24:20;101141.44;;;27.41;47.40
62710;BME280;48770;51.624;5.886;2023-09-12T06:26:49;101139.44;;;27.42;47.72
62710;BME280;48770;51.624;5.886;2023-09-12T06:29:14;101128.19;;;27.42;47.95
62710;BME280;48770;51.624;5.886;2023-09-12T06:31:40;101123.78;;;27.41;47.71
62710;BME280;48770;51.624;5.886;2023-09-12T06:34:08;101122.16;;;27.40;47.51
62710;BME280;48770;51.624;5.886;2023-09-12T06:36:34;101124.97;;;27.40;47.98
62710;BME280;48770;51.624;5.886;2023-09-12T06:39:00;101123.78;;;27.41;47.79
62710;BME280;48770;51.624;5.886;2023-09-12T06:41:26;101133.41;;;27.40;47.96
62710;BME280;48770;51.624;5.886;2023-09-12T06:43:52;101139.81;;;27.40;47.93
62710;BME280;48770;51.624;5.886;2023-09-12T06:46:18;101137.81;;;27.41;47.57
62710;BME280;48770;51.624;5.886;2023-09-12T06:48:44;101149.84;;;27.41;47.61
62710;BME280;48770;51.624;5.886;2023-09-12T06:51:10;101147.03;;;27.41;47.45
62710;BME280;48770;51.624;5.886;2023-09-12T06:53:36;101141.44;;;27.41;47.38
62710;BME280;48770;51.624;5.886;2023-09-12T06:56:04;101145.84;;;27.42;47.73
62710;BME280;48770;51.624;5.886;2023-09-12T06:58:30;101147.03;;;27.41;47.64
62710;BME280;48770;51.624;5.886;2023-09-12T07:00:55;101151.84;;;27.41;47.61
62710;BME280;48770;51.624;5.886;2023-09-12T07:03:20;101151.84;;;27.41;48.08
62710;BME280;48770;51.624;5.886;2023-09-12T07:05:46;101157.06;;;27.42;48.21
62710;BME280;48770;51.624;5.886;2023-09-12T07:08:11;101151.84;;;27.41;48.06
62710;BME280;48770;51.624;5.886;2023-09-12T07:10:36;101155.88;;;27.43;48.12
62710;BME280;48770;51.624;5.886;2023-09-12T07:13:02;101157.09;;;27.46;47.65
62710;BME280;48770;51.624;5.886;2023-09-12T07:15:28;101163.13;;;27.48;47.79
62710;BME280;48770;51.624;5.886;2023-09-12T07:17:53;101173.97;;;27.49;47.97
62710;BME280;48770;51.624;5.886;2023-09-12T07:20:19;101167.97;;;27.51;47.87
62710;BME280;48770;51.624;5.886;2023-09-12T07:22:45;101175.59;;;27.54;47.75
62710;BME280;48770;51.624;5.886;2023-09-12T07:25:11;101168.78;;;27.55;47.69
62710;BME280;48770;51.624;5.886;2023-09-12T07:27:37;101174.00;;;27.56;48.20
62710;BME280;48770;51.624;5.886;2023-09-12T07:30:04;101162.38;;;27.58;47.72
62710;BME280;48770;51.624;5.886;2023-09-12T07:32:29;101161.22;;;27.59;48.02
62710;BME280;48770;51.624;5.886;2023-09-12T07:34:55;101167.25;;;27.61;47.81
62710;BME280;48770;51.624;5.886;2023-09-12T07:37:20;101167.25;;;27.61;47.74
62710;BME280;48770;51.624;5.886;2023-09-12T07:39:45;101163.28;;;27.62;47.93
62710;BME280;48770;51.624;5.886;2023-09-12T07:42:10;101162.88;;;27.63;47.61
62710;BME280;48770;51.624;5.886;2023-09-12T07:44:36;101154.84;;;27.66;47.71
62710;BME280;48770;51.624;5.886;2023-09-12T07:47:01;101158.47;;;27.66;48.16
62710;BME280;48770;51.624;5.886;2023-09-12T07:49:26;101156.47;;;27.67;48.16
62710;BME280;48770;51.624;5.886;2023-09-12T07:51:52;101157.69;;;27.69;47.89
62710;BME280;48770;51.624;5.886;2023-09-12T07:54:17;101156.50;;;27.70;48.20
62710;BME280;48770;51.624;5.886;2023-09-12T07:56:43;101158.91;;;27.72;48.44
62710;BME280;48770;51.624;5.886;2023-09-12T07:59:08;101157.69;;;27.73;48.06
62710;BME280;48770;51.624;5.886;2023-09-12T08:01:35;101150.88;;;27.74;48.28
62710;BME280;48770;51.624;5.886;2023-09-12T08:04:00;101162.94;;;27.74;47.88
62710;BME280;48770;51.624;5.886;2023-09-12T08:06:25;101166.16;;;27.76;48.08
62710;BME280;48770;51.624;5.886;2023-09-12T08:08:51;101163.75;;;27.78;48.71
62710;BME280;48770;51.624;5.886;2023-09-12T08:11:16;101163.75;;;27.78;48.33
62710;BME280;48770;51.624;5.886;2023-09-12T08:13:42;101169.78;;;27.80;48.58
62710;BME280;48770;51.624;5.886;2023-09-12T08:16:07;101158.16;;;27.82;48.55
62710;BME280;48770;51.624;5.886;2023-09-12T08:18:32;101156.94;;;27.83;48.92
62710;BME280;48770;51.624;5.886;2023-09-12T08:20:57;101146.16;;;27.85;48.83
62710;BME280;48770;51.624;5.886;2023-09-12T08:23:23;101157.00;;;27.86;48.99
62710;BME280;48770;51.624;5.886;2023-09-12T08:25:48;101158.22;;;27.89;48.65
62710;BME280;48770;51.624;5.886;2023-09-12T08:28:14;101148.56;;;27.90;48.77
62710;BME280;48770;51.624;5.886;2023-09-12T08:30:39;101160.63;;;27.90;48.68
62710;BME280;48770;51.624;5.886;2023-09-12T08:33:04;101155.81;;;27.91;48.38
62710;BME280;48770;51.624;5.886;2023-09-12T08:35:32;101164.66;;;27.93;48.85
62710;BME280;48770;51.624;5.886;2023-09-12T08:37:57;101163.44;;;27.94;48.32
62710;BME280;48770;51.624;5.886;2023-09-12T08:40:23;101168.66;;;27.95;48.62
62710;BME280;48770;51.624;5.886;2023-09-12T08:42:51;101173.91;;;27.97;48.86
62710;BME280;48770;51.624;5.886;2023-09-12T08:45:18;101175.50;;;27.98;48.41
62710;BME280;48770;51.624;5.886;2023-09-12T08:47:45;101172.31;;;28.00;48.33
62710;BME280;48770;51.624;5.886;2023-09-12T08:50:14;101172.72;;;28.02;48.56
62710;BME280;48770;51.624;5.886;2023-09-12T08:52:41;101184.75;;;28.02;48.26
62710;BME280;48770;51.624;5.886;2023-09-12T08:55:07;101197.63;;;28.03;48.25
62710;BME280;48770;51.624;5.886;2023-09-12T08:57:35;101208.47;;;28.05;48.48
62710;BME280;48770;51.624;5.886;2023-09-12T09:00:02;101214.50;;;28.07;48.19
62710;BME280;48770;51.624;5.886;2023-09-12T09:02:37;101211.69;;;28.07;48.20
62710;BME280;48770;51.624;5.886;2023-09-12T09:05:04;101217.31;;;28.07;48.64
62710;BME280;48770;51.624;5.886;2023-09-12T09:07:33;101202.84;;;28.08;48.36
62710;BME280;48770;51.624;5.886;2023-09-12T09:10:02;101217.72;;;28.09;48.53
62710;BME280;48770;51.624;5.886;2023-09-12T09:12:28;101218.97;;;28.11;50.18
62710;BME280;48770;51.624;5.886;2023-09-12T09:14:53;101221.38;;;28.13;49.97
62710;BME280;48770;51.624;5.886;2023-09-12T09:17:19;101223.41;;;28.16;49.32
62710;BME280;48770;51.624;5.886;2023-09-12T09:19:44;101224.22;;;28.16;49.40
62710;BME280;48770;51.624;5.886;2023-09-12T09:22:10;101230.63;;;28.17;49.85
62710;BME280;48770;51.624;5.886;2023-09-12T09:24:36;101229.03;;;28.16;49.31
62710;BME280;48770;51.624;5.886;2023-09-12T09:27:01;101233.38;;;28.10;48.73
62710;BME280;48770;51.624;5.886;2023-09-12T09:29:28;101222.13;;;28.06;48.29
62710;BME280;48770;51.624;5.886;2023-09-12T09:32:02;101217.31;;;28.07;48.63
62710;BME280;48770;51.624;5.886;2023-09-12T09:34:29;101216.50;;;28.06;48.44
62710;BME280;48770;51.624;5.886;2023-09-12T09:36:57;101206.84;;;28.00;47.88
62710;BME280;48770;51.624;5.886;2023-09-12T09:39:27;101200.41;;;27.96;47.72
62710;BME280;48770;51.624;5.886;2023-09-12T09:41:55;101197.56;;;27.92;47.18
62710;BME280;48770;51.624;5.886;2023-09-12T09:44:22;101196.34;;;27.90;47.32
62710;BME280;48770;51.624;5.886;2023-09-12T09:46:54;101191.53;;;27.87;47.32
62710;BME280;48770;51.624;5.886;2023-09-12T09:49:20;101196.34;;;27.86;47.75
62710;BME280;48770;51.624;5.886;2023-09-12T09:51:46;101188.72;;;27.87;47.79
62710;BME280;48770;51.624;5.886;2023-09-12T09:54:13;101191.13;;;27.85;48.24
62710;BME280;48770;51.624;5.886;2023-09-12T09:56:46;101201.09;;;27.82;48.13
62710;BME280;48770;51.624;5.886;2023-09-12T09:59:13;101198.91;;;27.58;48.76
62710;BME280;48770;51.624;5.886;2023-09-12T10:01:40;101201.00;;;27.64;48.18
62710;BME280;48770;51.624;5.886;2023-09-12T10:04:07;101195.81;;;27.67;48.12
62710;BME280;48770;51.624;5.886;2023-09-12T10:06:35;101186.59;;;27.70;47.94
62710;BME280;48770;51.624;5.886;2023-09-12T10:09:06;101194.22;;;27.69;47.13
62710;BME280;48770;51.624;5.886;2023-09-12T10:11:32;101196.59;;;27.67;47.07
62710;BME280;48770;51.624;5.886;2023-09-12T10:14:00;101201.81;;;27.65;47.14
62710;BME280;48770;51.624;5.886;2023-09-12T10:16:33;101211.44;;;27.64;47.14
62710;BME280;48770;51.624;5.886;2023-09-12T10:22:07;101204.91;;;27.56;47.24
62710;BME280;48770;51.624;5.886;2023-09-12T10:24:35;101205.72;;;27.57;46.93
62710;BME280;48770;51.624;5.886;2023-09-12T10:27:00;101200.09;;;27.57;47.10
62710;BME280;48770;51.624;5.886;2023-09-12T10:29:27;101189.72;;;27.61;46.96
62710;BME280;48770;51.624;5.886;2023-09-12T10:31:53;101191.38;;;27.62;46.70
62710;BME280;48770;51.624;5.886;2023-09-12T10:34:20;101179.63;;;27.56;46.83
62710;BME280;48770;51.624;5.886;2023-09-12T10:36:46;101182.44;;;27.56;47.04
62710;BME280;48770;51.624;5.886;2023-09-12T10:39:14;101191.66;;;27.57;46.76
62710;BME280;48770;51.624;5.886;2023-09-12T10:41:40;101186.84;;;27.57;47.06
62710;BME280;48770;51.624;5.886;2023-09-12T10:44:16;101193.34;;;27.61;46.76
62710;BME280;48770;51.624;5.886;2023-09-12T10:46:44;101195.81;;;27.67;47.48
62710;BME280;48770;51.624;5.886;2023-09-12T10:49:11;101189.81;;;27.72;47.68
62710;BME280;48770;51.624;5.886;2023-09-12T10:51:38;101188.22;;;27.74;47.42
62710;BME280;48770;51.624;5.886;2023-09-12T10:54:05;101180.56;;;27.71;46.66
62710;BME280;48770;51.624;5.886;2023-09-12T10:56:30;101176.94;;;27.67;46.14
62710;BME280;48770;51.624;5.886;2023-09-12T11:01:32;101172.94;;;27.68;46.13
62710;BME280;48770;51.624;5.886;2023-09-12T11:03:58;101174.53;;;27.69;45.58
62710;BME280;48770;51.624;5.886;2023-09-12T11:06:30;101170.13;;;27.68;46.07
62710;BME280;48770;51.624;5.886;2023-09-12T11:11:40;101170.53;;;27.70;46.00
62710;BME280;48770;51.624;5.886;2023-09-12T11:14:07;101170.16;;;27.72;46.06
62710;BME280;48770;51.624;5.886;2023-09-12T11:16:32;101169.34;;;27.71;45.71
62710;BME280;48770;51.624;5.886;2023-09-12T11:19:20;101166.91;;;27.70;45.20
62710;BME280;48770;51.624;5.886;2023-09-12T11:21:54;101160.50;;;27.69;45.60
62710;BME280;48770;51.624;5.886;2023-09-12T11:24:21;101162.09;;;27.70;46.63
62710;BME280;48770;51.624;5.886;2023-09-12T11:27:02;101166.53;;;27.71;46.95
62710;BME280;48770;51.624;5.886;2023-09-12T11:29:37;101167.75;;;27.74;46.68
62710;BME280;48770;51.624;5.886;2023-09-12T11:32:03;101174.16;;;27.74;45.90
62710;BME280;48770;51.624;5.886;2023-09-12T11:34:37;101170.94;;;27.72;45.94
62710;BME280;48770;51.624;5.886;2023-09-12T11:37:03;101168.13;;;27.72;46.38
62710;BME280;48770;51.624;5.886;2023-09-12T11:39:31;101165.31;;;27.72;45.50
62710;BME280;48770;51.624;5.886;2023-09-12T11:41:58;101168.13;;;27.72;44.41
62710;BME280;48770;51.624;5.886;2023-09-12T11:44:24;101167.72;;;27.70;44.65
62710;BME280;48770;51.624;5.886;2023-09-12T11:46:51;101167.72;;;27.70;44.79
62710;BME280;48770;51.624;5.886;2023-09-12T11:49:18;101177.38;;;27.73;44.61
62710;BME280;48770;51.624;5.886;2023-09-12T11:51:53;101165.75;;;27.74;43.62
62710;BME280;48770;51.624;5.886;2023-09-12T11:54:20;101166.16;;;27.76;43.60
62710;BME280;48770;51.624;5.886;2023-09-12T11:56:49;101156.94;;;27.79;43.97
62710;BME280;48770;51.624;5.886;2023-09-12T11:59:25;101158.94;;;27.79;43.64
62710;BME280;48770;51.624;5.886;2023-09-12T12:01:51;101171.41;;;27.81;44.00
62710;BME280;48770;51.624;5.886;2023-09-12T12:04:17;101167.78;;;27.84;43.75
62710;BME280;48770;51.624;5.886;2023-09-12T12:06:43;101176.22;;;27.84;44.27
62710;BME280;48770;51.624;5.886;2023-09-12T12:09:09;101171.06;;;27.90;44.19
62710;BME280;48770;51.624;5.886;2023-09-12T12:11:34;101169.47;;;27.92;44.14
62710;BME280;48770;51.624;5.886;2023-09-12T12:14:28;101164.66;;;27.93;44.51
62710;BME280;48770;51.624;5.886;2023-09-12T12:17:05;101167.88;;;27.99;44.50
62710;BME280;48770;51.624;5.886;2023-09-12T12:19:30;101165.09;;;28.02;44.33
62710;BME280;48770;51.624;5.886;2023-09-12T12:21:55;101163.09;;;28.06;44.50
62710;BME280;48770;51.624;5.886;2023-09-12T12:24:21;101164.75;;;28.11;44.36
62710;BME280;48770;51.624;5.886;2023-09-12T12:26:46;101163.56;;;28.15;44.73
62710;BME280;48770;51.624;5.886;2023-09-12T12:29:11;101163.56;;;28.19;45.33
62710;BME280;48770;51.624;5.886;2023-09-12T12:31:38;101164.38;;;28.19;45.33
62710;BME280;48770;51.624;5.886;2023-09-12T12:34:05;101158.75;;;28.19;45.45
62710;BME280;48770;51.624;5.886;2023-09-12T12:36:30;101161.56;;;28.19;45.25
62710;BME280;48770;51.624;5.886;2023-09-12T12:38:56;101159.94;;;28.18;45.84
62710;BME280;48770;51.624;5.886;2023-09-12T12:41:25;101156.31;;;28.18;45.29
62710;BME280;48770;51.624;5.886;2023-09-12T12:43:52;101157.94;;;28.19;45.41
62710;BME280;48770;51.624;5.886;2023-09-12T12:46:18;101158.34;;;28.17;45.17
62710;BME280;48770;51.624;5.886;2023-09-12T12:48:47;101159.13;;;28.18;45.49
62710;BME280;48770;51.624;5.886;2023-09-12T12:51:33;101146.28;;;28.13;45.29
62710;BME280;48770;51.624;5.886;2023-09-12T12:54:04;101141.88;;;28.16;45.22
62710;BME280;48770;51.624;5.886;2023-09-12T12:56:30;101141.06;;;28.19;45.02
62710;BME280;48770;51.624;5.886;2023-09-12T12:58:58;101138.25;;;28.22;45.12